ザウジ の空港の天気 - METARとTAF

ザウジ・パマンジ空港 ( FMCZ / DZA ) - マヨット ザウジ
飛行場実況気象(Metar)
観測時間09/25 22:30 EAT (09/25 19:30 UTC)
風向・風速北 3m/s
視程10km以上
天気現象
なし
気温24℃
湿度83%
気圧1016hPa
METARFMCZ 251930Z AUTO 35005KT 310V030 CAVOK 24/21 Q1016 NOSIG
過去の天気等 Google飛行場航空写真 Wunderground天気予報

過去48時間のMETAR

飛行場予報(TAF)
発表時間: -
26日1時 EAT ~ 26日9時 EAT に一時的に
視程3000m
天気現象しゅう雨
全天の4割程度の塔状積雲 雲底高度 610m
TAF
FMCZ 251700Z 2518/2618 06010KT 9999 SCT022
TEMPO 2522/2606 3000 SHRA SCT020TCU